Oakville, Michigan
Current Conditions -  °F | °C
As of 12:53 AM on Sunday 26 Oct 2014 (Local Time) from KARB Reporting Station
Clear Clear  
Wind Chill: 52°   Ceiling: Unl
Heat Index: 52°   Visibility: 10mi
Dew Point: 30°   Wind: 9mph
Humidity: 43%   Direction: 300°WNW
Pressure: 29.83"   Gusts: NA
Location:  42.0828°N, 83.683°W
Report Text: KARB 260453Z AUTO 30008KT 10SM CLR 11/M01 A2983 RMK AO2 SLP101 T01111011 402060017
Loading
Personal Weather Stations






























Interactive Weather Map
Tropical Storm Tracking
New forecast layout! Learn more

10-Day Weather Forecast

Advertisements
Track Severe Weather on mobile